Terminal Aerodrome Forecast
Issued by NWS Goodland, KS

Home | Current Version | Previous Version | Text Only | Print | Product List | Glossary On
Versions: 1 2 3 4 5 6 7 8 9 10 11 12 13 14 15 16
000
FTUS43 KGLD 212320
TAFGLD
TAF
KGLD 212320Z 2200/2224 13011KT P6SM BKN035
     FM220200 15010KT P6SM BKN025
     FM220600 14010KT 6SM BR BKN015
      TEMPO 2212/2216 3SM -SN BR BKN007
     FM221800 17011KT P6SM BKN050=

USA.gov is the U.S. government's official web portal to all federal, state and local government web resources and services.